createdAt,value
2019-02-07T00:01:13.880Z,3.10
2019-02-07T00:03:43.862Z,3.08
2019-02-07T00:06:13.776Z,3.04
2019-02-07T00:08:43.973Z,3.03
2019-02-07T00:11:13.641Z,3.06
2019-02-07T00:13:43.624Z,3.06
2019-02-07T00:16:13.369Z,3.05
2019-02-07T00:18:44.707Z,3.03
2019-02-07T00:21:14.441Z,3.01
2019-02-07T00:23:44.435Z,3.03
2019-02-07T00:26:14.430Z,3.00
2019-02-07T00:28:44.176Z,3.00
2019-02-07T00:31:14.695Z,2.97
2019-02-07T00:33:44.386Z,2.97
2019-02-07T00:36:14.583Z,2.97
2019-02-07T00:38:44.337Z,2.97
2019-02-07T00:41:14.927Z,2.96
2019-02-07T00:43:44.562Z,2.96
2019-02-07T00:46:14.728Z,2.96
2019-02-07T00:48:44.527Z,2.94
2019-02-07T00:51:14.149Z,2.91
2019-02-07T00:53:43.782Z,2.89
2019-02-07T00:56:13.608Z,2.90
2019-02-07T00:58:43.414Z,2.92
2019-02-07T01:01:13.139Z,2.96
2019-02-07T01:03:43.564Z,2.97
2019-02-07T01:06:15.672Z,2.99
2019-02-07T01:08:45.747Z,3.02
2019-02-07T01:11:15.586Z,3.09
2019-02-07T01:13:45.708Z,3.14
2019-02-07T01:16:15.265Z,3.14
2019-02-07T01:18:46.923Z,3.17
2019-02-07T01:21:17.419Z,3.17
2019-02-07T01:23:47.339Z,3.17
2019-02-07T01:26:17.162Z,3.18
2019-02-07T01:28:46.784Z,3.19
2019-02-07T01:31:16.414Z,3.21
2019-02-07T01:33:46.186Z,3.20
2019-02-07T01:36:15.928Z,3.23
2019-02-07T01:38:45.664Z,3.25
2019-02-07T01:41:15.623Z,3.27
2019-02-07T01:43:45.363Z,3.27
2019-02-07T01:46:15.378Z,3.28
2019-02-07T01:48:45.596Z,3.33
2019-02-07T01:51:15.635Z,3.35
2019-02-07T01:53:45.384Z,3.38
2019-02-07T01:56:15.042Z,3.37
2019-02-07T01:58:44.682Z,3.42
2019-02-07T02:01:14.652Z,3.44
2019-02-07T02:03:44.791Z,3.44
2019-02-07T02:06:14.418Z,3.46
2019-02-07T02:08:44.049Z,3.46
2019-02-07T02:11:15.050Z,3.43
2019-02-07T02:13:44.874Z,3.44
2019-02-07T02:16:14.860Z,3.42
2019-02-07T02:18:46.281Z,3.39
2019-02-07T02:21:16.358Z,3.40
2019-02-07T02:23:45.981Z,3.40
2019-02-07T02:26:15.941Z,3.39
2019-02-07T02:28:45.824Z,3.36
2019-02-07T02:31:15.454Z,3.31
2019-02-07T02:33:46.502Z,3.31
2019-02-07T02:36:17.751Z,3.30
2019-02-07T02:38:48.031Z,3.27
2019-02-07T02:41:17.832Z,3.25
2019-02-07T02:43:47.528Z,3.23
2019-02-07T02:46:17.274Z,3.22
2019-02-07T02:48:46.924Z,3.22
2019-02-07T02:51:17.639Z,3.26
2019-02-07T02:53:47.735Z,3.24
2019-02-07T02:56:17.418Z,3.19
2019-02-07T02:58:47.046Z,3.16
2019-02-07T03:01:18.710Z,3.17
2019-02-07T03:03:50.130Z,3.17
2019-02-07T03:06:21.780Z,3.16
2019-02-07T03:08:53.064Z,3.12
2019-02-07T03:11:24.548Z,3.11
2019-02-07T03:13:59.191Z,3.11
2019-02-07T03:16:46.221Z,3.14
2019-02-07T03:19:29.773Z,3.16
2019-02-07T03:22:07.067Z,3.19
2019-02-07T03:24:54.553Z,3.22
2019-02-07T03:27:31.828Z,3.24
2019-02-07T03:30:19.374Z,3.24
2019-02-07T03:32:51.061Z,3.27
2019-02-07T03:35:22.449Z,3.27
2019-02-07T03:38:10.069Z,3.24
2019-02-07T03:40:47.077Z,3.24
2019-02-07T03:43:21.103Z,3.25
2019-02-07T03:46:02.948Z,3.24
2019-02-07T03:48:34.726Z,3.22
2019-02-07T03:51:09.520Z,3.24
2019-02-07T03:53:58.989Z,3.27
2019-02-07T03:56:46.046Z,3.31
2019-02-07T03:59:17.792Z,3.36
2019-02-07T04:02:05.452Z,3.39
2019-02-07T04:04:45.995Z,3.40
2019-02-07T04:07:23.468Z,3.38
2019-02-07T04:10:10.607Z,3.37
2019-02-07T04:12:41.873Z,3.42
2019-02-07T04:15:30.037Z,3.44
2019-02-07T04:18:01.292Z,3.49
2019-02-07T04:20:47.555Z,3.52
2019-02-07T04:23:19.100Z,3.54
2019-02-07T04:25:53.331Z,3.55
2019-02-07T04:28:24.610Z,3.55
2019-02-07T04:31:01.781Z,3.53
2019-02-07T04:33:35.507Z,3.53
2019-02-07T04:36:19.070Z,3.58
2019-02-07T04:39:06.430Z,3.60
2019-02-07T04:41:54.423Z,3.59
2019-02-07T04:44:25.692Z,3.56
2019-02-07T04:47:00.305Z,3.56
2019-02-07T04:49:43.900Z,3.54
2019-02-07T04:52:27.162Z,3.56
2019-02-07T04:55:01.525Z,3.58
2019-02-07T04:57:35.344Z,3.61
2019-02-07T05:00:12.837Z,3.64
2019-02-07T05:02:49.685Z,3.72
2019-02-07T05:05:29.426Z,3.75
2019-02-07T05:08:01.015Z,3.76
2019-02-07T05:10:41.216Z,3.76
2019-02-07T05:13:18.255Z,3.76
2019-02-07T05:16:05.463Z,3.79
2019-02-07T05:18:48.792Z,3.82
2019-02-07T05:21:25.909Z,3.84
2019-02-07T05:24:12.550Z,3.85
2019-02-07T05:26:55.639Z,3.84
2019-02-07T05:29:43.044Z,3.84
2019-02-07T05:32:15.555Z,3.90
2019-02-07T05:34:55.603Z,3.88
2019-02-07T05:37:29.548Z,3.86
2019-02-07T05:40:01.172Z,3.84
2019-02-07T05:42:37.075Z,3.82
2019-02-07T05:45:29.539Z,3.84
2019-02-07T05:48:00.918Z,3.93
2019-02-07T05:50:35.313Z,4.07
2019-02-07T05:53:18.710Z,4.13
2019-02-07T05:55:52.985Z,4.14
2019-02-07T05:58:41.126Z,4.18
2019-02-07T06:01:14.849Z,4.20
2019-02-07T06:03:51.900Z,4.24
2019-02-07T06:06:39.498Z,4.25
2019-02-07T06:09:27.256Z,4.27
2019-02-07T06:12:01.550Z,4.30
2019-02-07T06:14:41.901Z,4.30
2019-02-07T06:17:29.100Z,4.22
2019-02-07T06:20:18.508Z,4.12
2019-02-07T06:23:07.797Z,4.11
2019-02-07T06:25:54.343Z,4.12
2019-02-07T06:28:37.477Z,4.13
2019-02-07T06:31:11.425Z,4.11
2019-02-07T06:33:52.883Z,4.04
2019-02-07T06:36:30.206Z,4.02
2019-02-07T06:39:07.214Z,4.03
2019-02-07T06:41:38.549Z,4.03
2019-02-07T06:44:26.731Z,4.13
2019-02-07T06:47:01.033Z,4.17
2019-02-07T06:49:47.641Z,4.19
2019-02-07T06:52:35.500Z,4.17
2019-02-07T06:55:24.468Z,4.19
2019-02-07T06:58:02.846Z,4.27
2019-02-07T07:00:50.160Z,4.35
2019-02-07T07:03:21.599Z,4.35
2019-02-07T07:06:01.990Z,4.36
2019-02-07T07:08:33.300Z,4.37
2019-02-07T07:11:04.675Z,4.40
2019-02-07T07:13:51.212Z,4.46
2019-02-07T07:16:37.582Z,4.51
2019-02-07T07:19:08.897Z,4.57
2019-02-07T07:21:40.183Z,4.62
2019-02-07T07:24:20.655Z,4.66
2019-02-07T07:26:51.929Z,4.70
2019-02-07T07:29:25.876Z,4.72
2019-02-07T07:32:00.047Z,4.75
2019-02-07T07:34:31.448Z,4.79
2019-02-07T07:37:11.479Z,4.82
2019-02-07T07:39:51.568Z,4.86
2019-02-07T07:42:26.810Z,4.91
2019-02-07T07:45:01.175Z,4.96
2019-02-07T07:47:48.330Z,5.01
2019-02-07T07:50:35.703Z,5.06
2019-02-07T07:53:16.483Z,5.10
2019-02-07T07:55:56.575Z,5.12
2019-02-07T07:58:33.244Z,5.13
2019-02-07T08:01:20.920Z,5.12
2019-02-07T08:03:55.259Z,5.15
2019-02-07T08:06:46.610Z,5.19
2019-02-07T08:09:23.947Z,5.22
2019-02-07T08:12:01.054Z,5.26
2019-02-07T08:14:32.460Z,5.28
2019-02-07T08:17:19.851Z,5.30
2019-02-07T08:19:56.919Z,5.33
2019-02-07T08:22:43.267Z,5.38
2019-02-07T08:25:25.469Z,5.41
2019-02-07T08:27:59.686Z,5.43
2019-02-07T08:30:36.862Z,5.45
2019-02-07T08:33:20.301Z,5.48
2019-02-07T08:35:57.277Z,5.60
2019-02-07T08:38:28.590Z,5.71
2019-02-07T08:41:21.631Z,5.79
2019-02-07T08:44:05.100Z,5.85
2019-02-07T08:46:46.546Z,5.93
2019-02-07T08:49:36.027Z,6.01
2019-02-07T08:52:26.220Z,6.13
2019-02-07T08:55:06.446Z,6.21
2019-02-07T08:57:55.843Z,6.26
2019-02-07T09:00:27.114Z,6.33
2019-02-07T09:03:03.814Z,6.42
2019-02-07T09:05:35.848Z,6.46
2019-02-07T09:08:13.121Z,6.48
2019-02-07T09:11:00.824Z,6.54
2019-02-07T09:13:44.603Z,6.65
2019-02-07T09:16:16.038Z,6.82
2019-02-07T09:18:50.295Z,6.93
2019-02-07T09:21:38.998Z,6.99
2019-02-07T09:24:28.614Z,7.05
2019-02-07T09:27:16.101Z,7.10
2019-02-07T09:29:53.253Z,7.13
2019-02-07T09:32:27.835Z,7.17
2019-02-07T09:34:59.128Z,7.24
2019-02-07T09:37:32.910Z,7.33
2019-02-07T09:40:06.713Z,7.43
2019-02-07T09:42:39.566Z,7.51
2019-02-07T09:45:19.872Z,7.59
2019-02-07T09:48:00.244Z,7.63
2019-02-07T09:50:48.343Z,7.68
2019-02-07T09:53:34.484Z,7.70
2019-02-07T09:56:15.598Z,7.69
2019-02-07T09:58:46.866Z,7.67
2019-02-07T10:01:23.952Z,7.67
2019-02-07T10:03:55.335Z,7.66
2019-02-07T10:06:29.573Z,7.56
2019-02-07T10:09:17.283Z,7.50
2019-02-07T10:12:04.659Z,7.43
2019-02-07T10:14:35.926Z,7.35
2019-02-07T10:17:14.612Z,7.25
2019-02-07T10:19:48.294Z,7.16
2019-02-07T10:22:22.564Z,7.14
2019-02-07T10:24:56.498Z,7.19
2019-02-07T10:27:33.582Z,7.29
2019-02-07T10:30:24.368Z,7.51
2019-02-07T10:33:11.826Z,7.80
2019-02-07T10:35:43.450Z,8.02
2019-02-07T10:38:31.153Z,8.28
2019-02-07T10:41:14.730Z,8.50
2019-02-07T10:43:46.203Z,8.63
2019-02-07T10:46:21.567Z,8.66
2019-02-07T10:49:02.500Z,8.66
2019-02-07T10:51:48.460Z,8.70
2019-02-07T10:54:22.568Z,8.63
2019-02-07T10:56:57.421Z,8.51
2019-02-07T10:59:43.785Z,8.41
2019-02-07T11:02:24.475Z,8.34
2019-02-07T11:05:01.975Z,8.23
2019-02-07T11:07:33.502Z,8.20
2019-02-07T11:10:09.867Z,8.09
2019-02-07T11:12:53.164Z,8.02
2019-02-07T11:15:40.681Z,7.93
2019-02-07T11:18:12.207Z,7.86
2019-02-07T11:20:55.639Z,7.83
2019-02-07T11:23:45.213Z,7.83
2019-02-07T11:26:16.503Z,7.81
2019-02-07T11:28:47.775Z,7.86
2019-02-07T11:31:37.724Z,7.92
2019-02-07T11:34:08.985Z,8.01
2019-02-07T11:36:53.601Z,8.10
2019-02-07T11:39:19.456Z,8.18
2019-02-07T11:41:53.559Z,8.27
2019-02-07T11:44:41.374Z,8.33
2019-02-07T11:47:15.147Z,8.35
2019-02-07T11:49:52.534Z,8.34
2019-02-07T11:52:39.918Z,8.25
2019-02-07T11:55:11.515Z,8.25
2019-02-07T11:57:43.399Z,8.29
2019-02-07T12:00:21.093Z,8.29
2019-02-07T12:03:10.740Z,8.41
2019-02-07T12:05:48.087Z,8.49
2019-02-07T12:08:25.465Z,8.63
2019-02-07T12:10:57.639Z,8.79
2019-02-07T12:13:28.908Z,8.89
2019-02-07T12:16:15.624Z,8.99
2019-02-07T12:19:03.192Z,9.04
2019-02-07T12:21:37.535Z,9.12
2019-02-07T12:24:24.599Z,9.14
2019-02-07T12:27:12.631Z,9.11
2019-02-07T12:29:53.282Z,9.07
2019-02-07T12:32:30.433Z,9.01
2019-02-07T12:35:13.817Z,8.92
2019-02-07T12:37:45.241Z,8.88
2019-02-07T12:40:26.894Z,8.85
2019-02-07T12:43:01.007Z,8.83
2019-02-07T12:45:38.067Z,8.74
2019-02-07T12:48:19.035Z,8.60
2019-02-07T12:50:51.426Z,8.53
2019-02-07T12:53:22.700Z,8.48
2019-02-07T12:56:10.190Z,8.43
2019-02-07T12:58:57.984Z,8.35
2019-02-07T13:01:38.324Z,8.31
2019-02-07T13:04:29.260Z,8.30
2019-02-07T13:07:09.781Z,8.26
2019-02-07T13:09:47.899Z,8.26
2019-02-07T13:12:35.195Z,8.33
2019-02-07T13:15:15.123Z,8.32
2019-02-07T13:17:48.934Z,8.25
2019-02-07T13:20:36.812Z,8.18
2019-02-07T13:23:23.445Z,8.14
2019-02-07T13:25:55.141Z,8.10
2019-02-07T13:28:26.671Z,8.07
2019-02-07T13:31:16.229Z,8.02
2019-02-07T13:33:56.469Z,8.00
2019-02-07T13:36:27.789Z,8.02
2019-02-07T13:39:08.259Z,8.04
2019-02-07T13:41:45.583Z,8.03
2019-02-07T13:44:23.006Z,7.98
2019-02-07T13:47:09.310Z,7.93
2019-02-07T13:49:52.002Z,7.86
2019-02-07T13:52:19.463Z,7.77
2019-02-07T13:54:59.934Z,7.69
2019-02-07T13:57:47.937Z,7.62
2019-02-07T14:00:34.817Z,7.60
2019-02-07T14:03:10.778Z,7.59
2019-02-07T14:05:58.371Z,7.57
2019-02-07T14:08:38.408Z,7.55
2019-02-07T14:11:05.259Z,7.51
2019-02-07T14:13:41.157Z,7.48
2019-02-07T14:16:12.561Z,7.49
2019-02-07T14:18:52.906Z,7.47
2019-02-07T14:21:41.080Z,7.53
2019-02-07T14:24:24.660Z,7.51
2019-02-07T14:27:07.778Z,7.46
2019-02-07T14:29:45.278Z,7.44
2019-02-07T14:32:19.090Z,7.38
2019-02-07T14:35:02.999Z,7.34
2019-02-07T14:37:37.235Z,7.32
2019-02-07T14:40:29.271Z,7.29
2019-02-07T14:43:03.196Z,7.30
2019-02-07T14:45:40.179Z,7.30
2019-02-07T14:48:12.806Z,7.28
2019-02-07T14:50:42.444Z,7.25
2019-02-07T14:53:13.132Z,7.21
2019-02-07T14:55:43.626Z,7.17
2019-02-07T14:58:13.333Z,7.13
2019-02-07T15:00:43.390Z,7.07
2019-02-07T15:03:13.154Z,7.03
2019-02-07T15:05:45.770Z,6.97
2019-02-07T15:08:15.721Z,6.93
2019-02-07T15:10:45.624Z,6.90
2019-02-07T15:13:15.257Z,6.87
2019-02-07T15:15:45.789Z,6.82
2019-02-07T15:18:17.112Z,6.78
2019-02-07T15:20:46.871Z,6.74
2019-02-07T15:23:17.763Z,6.70
2019-02-07T15:25:48.049Z,6.69
2019-02-07T15:28:21.826Z,6.72
2019-02-07T15:30:52.591Z,6.66
2019-02-07T15:33:22.699Z,6.59
2019-02-07T15:35:52.556Z,6.51
2019-02-07T15:38:22.416Z,6.44
2019-02-07T15:40:55.224Z,6.41
2019-02-07T15:43:25.366Z,6.39
2019-02-07T15:45:56.194Z,6.35
2019-02-07T15:48:28.990Z,6.32
2019-02-07T15:51:00.403Z,6.29
2019-02-07T15:53:30.261Z,6.26
2019-02-07T15:56:00.851Z,6.24
2019-02-07T15:58:35.811Z,6.21
2019-02-07T16:01:12.095Z,6.17
2019-02-07T16:03:48.186Z,6.13
2019-02-07T16:06:18.715Z,6.09
2019-02-07T16:08:48.428Z,6.06
2019-02-07T16:11:18.436Z,5.99
2019-02-07T16:13:48.215Z,5.94
2019-02-07T16:16:18.040Z,5.89
2019-02-07T16:18:47.934Z,5.85
2019-02-07T16:21:17.626Z,5.81
2019-02-07T16:23:47.333Z,5.77
2019-02-07T16:26:17.109Z,5.74
2019-02-07T16:28:47.122Z,5.70
2019-02-07T16:31:17.017Z,5.67
2019-02-07T16:33:47.520Z,5.64
2019-02-07T16:36:17.773Z,5.64
2019-02-07T16:38:48.033Z,5.74
2019-02-07T16:41:17.663Z,5.75
2019-02-07T16:43:47.523Z,5.71
2019-02-07T16:46:17.147Z,5.67
2019-02-07T16:48:48.413Z,5.64
2019-02-07T16:51:18.298Z,5.60
2019-02-07T16:53:48.227Z,5.55
2019-02-07T16:56:17.855Z,5.51
2019-02-07T16:58:47.570Z,5.48
2019-02-07T17:01:18.549Z,5.45
2019-02-07T17:03:48.298Z,5.43
2019-02-07T17:06:17.990Z,5.40
2019-02-07T17:08:47.625Z,5.37
2019-02-07T17:11:18.295Z,5.36
2019-02-07T17:13:47.981Z,5.34
2019-02-07T17:16:17.946Z,5.32
2019-02-07T17:18:47.753Z,5.28
2019-02-07T17:21:17.776Z,5.27
2019-02-07T17:23:47.400Z,5.25
2019-02-07T17:26:17.572Z,5.25
2019-02-07T17:28:47.363Z,5.24
2019-02-07T17:31:17.184Z,5.24
2019-02-07T17:33:48.576Z,5.24
2019-02-07T17:36:18.714Z,5.25
2019-02-07T17:38:49.984Z,5.24
2019-02-07T17:41:20.258Z,5.23
2019-02-07T17:43:50.089Z,5.21
2019-02-07T17:46:20.164Z,5.18
2019-02-07T17:48:49.782Z,5.14
2019-02-07T17:51:23.337Z,5.09
2019-02-07T17:53:52.398Z,5.05
2019-02-07T17:56:22.152Z,5.05
2019-02-07T17:58:52.054Z,5.01
2019-02-07T18:01:21.714Z,4.98
2019-02-07T18:03:51.581Z,4.97
2019-02-07T18:06:21.289Z,4.92
2019-02-07T18:08:50.946Z,4.86
2019-02-07T18:11:20.752Z,4.79
2019-02-07T18:13:51.359Z,4.74
2019-02-07T18:16:20.983Z,4.72
2019-02-07T18:18:51.174Z,4.68
2019-02-07T18:21:20.809Z,4.63
2019-02-07T18:23:50.449Z,4.62
2019-02-07T18:26:20.224Z,4.59
2019-02-07T18:28:53.077Z,4.61
2019-02-07T18:31:22.931Z,4.62
2019-02-07T18:33:52.713Z,4.61
2019-02-07T18:36:22.345Z,4.62
2019-02-07T18:38:52.293Z,4.64
2019-02-07T18:41:21.956Z,4.67
2019-02-07T18:43:51.919Z,4.68
2019-02-07T18:46:21.645Z,4.68
2019-02-07T18:48:51.879Z,4.68
2019-02-07T18:51:21.976Z,4.65
2019-02-07T18:53:51.993Z,4.63
2019-02-07T18:56:21.742Z,4.61
2019-02-07T18:58:52.358Z,4.58
2019-02-07T19:01:22.339Z,4.57
2019-02-07T19:03:52.186Z,4.60
2019-02-07T19:06:21.870Z,4.61
2019-02-07T19:08:51.888Z,4.62
2019-02-07T19:11:22.215Z,4.64
2019-02-07T19:13:52.421Z,4.63
2019-02-07T19:16:22.318Z,4.62
2019-02-07T19:18:52.007Z,4.62
2019-02-07T19:21:23.585Z,4.66
2019-02-07T19:23:54.342Z,4.73
2019-02-07T19:26:30.772Z,4.82
2019-02-07T19:29:04.673Z,4.83
2019-02-07T19:31:38.803Z,4.85
2019-02-07T19:34:10.464Z,4.85
2019-02-07T19:36:43.708Z,4.80
2019-02-07T19:39:13.489Z,4.71
2019-02-07T19:41:46.311Z,4.66
2019-02-07T19:44:20.099Z,4.61
2019-02-07T19:46:50.121Z,4.59
2019-02-07T19:49:20.865Z,4.59
2019-02-07T19:51:50.541Z,4.60
2019-02-07T19:54:20.980Z,4.61
2019-02-07T19:56:50.682Z,4.65
2019-02-07T19:59:20.381Z,4.69
2019-02-07T20:01:51.082Z,4.70
2019-02-07T20:04:20.887Z,4.71
2019-02-07T20:06:51.021Z,4.68
2019-02-07T20:09:20.628Z,4.64
2019-02-07T20:11:50.273Z,4.59
2019-02-07T20:14:22.293Z,4.50
2019-02-07T20:16:52.027Z,4.43
2019-02-07T20:19:22.007Z,4.32
2019-02-07T20:21:51.760Z,4.27
2019-02-07T20:24:45.639Z,4.23
2019-02-07T20:27:09.229Z,4.20
2019-02-07T20:29:40.861Z,4.16
2019-02-07T20:32:12.115Z,4.17
2019-02-07T20:34:53.777Z,4.20
2019-02-07T20:37:24.425Z,4.21
2019-02-07T20:39:54.257Z,4.19
2019-02-07T20:42:25.503Z,4.28
2019-02-07T20:44:55.271Z,4.35
2019-02-07T20:47:27.112Z,4.32
2019-02-07T20:49:57.026Z,4.28
2019-02-07T20:52:27.391Z,4.29
2019-02-07T20:55:00.450Z,4.33
2019-02-07T20:57:30.081Z,4.39
2019-02-07T20:59:59.998Z,4.43
2019-02-07T21:02:30.806Z,4.45
2019-02-07T21:05:02.289Z,4.45
2019-02-07T21:07:31.923Z,4.45
2019-02-07T21:10:01.894Z,4.45
2019-02-07T21:12:32.384Z,4.43
2019-02-07T21:15:02.600Z,4.39
2019-02-07T21:17:32.282Z,4.42
2019-02-07T21:20:02.187Z,4.43
2019-02-07T21:22:34.659Z,4.46
2019-02-07T21:25:11.499Z,4.42
2019-02-07T21:27:41.124Z,4.37
2019-02-07T21:30:21.995Z,4.36
2019-02-07T21:32:52.744Z,4.42
2019-02-07T21:35:24.609Z,4.45
2019-02-07T21:37:55.408Z,4.48
2019-02-07T21:40:28.084Z,4.52
2019-02-07T21:42:59.472Z,4.52
2019-02-07T21:45:29.982Z,4.57
2019-02-07T21:48:00.395Z,4.74
2019-02-07T21:50:32.073Z,4.83
2019-02-07T21:53:02.003Z,4.87
2019-02-07T21:55:37.867Z,4.87
2019-02-07T21:58:09.297Z,4.77
2019-02-07T22:00:44.566Z,4.72
2019-02-07T22:03:16.144Z,4.72
2019-02-07T22:05:46.010Z,4.78
2019-02-07T22:08:17.514Z,4.85
2019-02-07T22:10:47.763Z,4.83
2019-02-07T22:13:18.269Z,4.79
2019-02-07T22:15:48.029Z,4.75
2019-02-07T22:18:17.743Z,4.71
2019-02-07T22:20:47.388Z,4.66
2019-02-07T22:23:18.743Z,4.58
2019-02-07T22:25:51.869Z,4.51
2019-02-07T22:28:23.118Z,4.50
2019-02-07T22:30:52.755Z,4.50
2019-02-07T22:33:23.817Z,4.50
2019-02-07T22:35:53.457Z,4.52
2019-02-07T22:38:23.792Z,4.50
2019-02-07T22:40:53.663Z,4.45
2019-02-07T22:43:23.296Z,4.39
2019-02-07T22:45:53.167Z,4.37
2019-02-07T22:48:22.879Z,4.35
2019-02-07T22:50:52.492Z,4.38
2019-02-07T22:53:22.986Z,4.38
2019-02-07T22:55:53.981Z,4.40
2019-02-07T22:58:26.092Z,4.39
2019-02-07T23:00:58.762Z,4.41
2019-02-07T23:03:28.756Z,4.42
2019-02-07T23:05:59.749Z,4.43
2019-02-07T23:08:30.200Z,4.44
2019-02-07T23:11:00.646Z,4.42
2019-02-07T23:13:30.271Z,4.41
2019-02-07T23:16:00.492Z,4.40
2019-02-07T23:18:30.967Z,4.40
2019-02-07T23:21:00.601Z,4.43
2019-02-07T23:23:31.503Z,4.44
2019-02-07T23:26:01.222Z,4.44
2019-02-07T23:28:31.464Z,4.44
2019-02-07T23:31:01.252Z,4.46
2019-02-07T23:33:31.516Z,4.45
2019-02-07T23:36:01.698Z,4.45
2019-02-07T23:38:32.004Z,4.46
2019-02-07T23:41:01.791Z,4.48
2019-02-07T23:43:32.378Z,4.50
2019-02-07T23:46:02.029Z,4.52
2019-02-07T23:48:32.682Z,4.56
2019-02-07T23:51:02.783Z,4.57
2019-02-07T23:53:33.270Z,4.55
2019-02-07T23:56:03.381Z,4.56
2019-02-07T23:58:34.942Z,4.53
